Airfield :







YOU CAN JOIN US ON...

 
LOGIN :

Register | Disclaimer

   EN    FR    IT 

 









Legend :    VFR   Marginal VFR   IFR   Intensive IFR   Very Intensive IFR
Visi :
Ceiling :
>= 8 km
>= 3000ft
5 to 8 km
1000 to 3000 ft
1500m to 5 km
500 to 1000 ft
800 to 1500m
200 to 500 ft
< 800m
< 200 ft
Symbols :   Thunderstorms  Fog  Heavy snow  Heavy precipitations  Wind > 20 kt






- Airport Elevation : 35 ft
- IATA code : YGR


CYGR - ëles-de-la-Madeleine

CURRENT METAR :
  • 011817Z 11014G19KT 15SM FEW005 OVC045 01/00 A2985 RMK SF1SC8 SF TR SLP109

EXPIRED METARs :
  • 011800Z 11011KT 15SM -RA FEW005 OVC040 01/00 A2985 RMK SF1SC7 SLP112
  • 011735Z 10014KT 15SM -RA FEW004 OVC040 01/00 A2985 RMK SF1SC7 SLP112
  • 011700Z 10013KT 6SM BR BKN004 OVC034 02/00 A2986 RMK SF6SC2 SLP114
  • 011641Z 09012KT 5SM BR OVC004 02/00 A2987 RMK SF8 SLP116
  • 011600Z 08011G16KT 1 3/4SM BR OVC003 02/01 A2987 RMK SF8 SLP116

TAF AMD TAF CYGR
Valid from the 01 at 17:00 until the 02 at 02:00 UTC


011746Z 0117/0202 10015KT P6SM -RA SCT004 OVC025
TEMPO 0117/0120 4SM -RA BR BKN004 OVC025
FM012000 10018KT 1SM -RA BR OVC004
TEMPO 0120/0202 1/2SM -DZ FG VV002 RMK NXT FCST BY 012000Z



MET'MAP, your aeronautical weather chart ! - Copyright ORBIFLY December 2007 - Disclaimer

ORBIFLY MET'MAP TEAM :

Programming & Development : Alexandra Zaïnal
Concept & original design : Baudouin d'Aumeries
Assistance for programming : Marc-Olivier Méhu
Technical & hardware support : Manuel Goepfert

Contact : metmap@orbifly.com




SOURCES & CREDITS :

   NOAA